Time;durP1;ratioP1;P1;durP2;ratioP2;P2;SDS_P1;SDS_P2;PMS_P1;PMS_P2;Temp;Humidity;BMP_temperature;BMP_pressure;BME280_temperature;BME280_humidity;BME280_pressure;Samples;Min_cycle;Max_cycle;Signal;HPM_P1;HPM_P2
2022/05/21 00:00:51;;;;;;;3.77;2.63;;;22.60;68.90;;;-142.21;99.75;112049.66;5079674;28;20212;-70
2022/05/21 00:03:18;;;;;;;3.37;2.60;;;22.60;69.00;;;-142.21;100.00;112049.66;5074425;28;20201;-70
2022/05/21 00:05:47;;;;;;;3.80;2.80;;;22.60;69.10;;;-142.21;100.00;112049.66;5077769;28;20233;-70
2022/05/21 00:08:14;;;;;;;3.53;2.63;;;22.70;69.10;;;-142.21;99.97;112049.66;5074243;28;20201;-71
2022/05/21 00:10:42;;;;;;;3.10;2.80;;;22.60;69.00;;;-142.21;100.00;112049.66;5076264;28;20262;-71
2022/05/21 00:13:09;;;;;;;5.07;3.23;;;22.60;69.10;;;-142.21;100.00;112049.66;5083594;28;20205;-71
2022/05/21 00:15:38;;;;;;;3.60;3.27;;;22.60;69.00;;;-142.21;100.00;112049.66;5086422;28;20287;-71
2022/05/21 00:18:06;;;;;;;5.13;3.33;;;22.50;69.20;;;-142.21;100.00;112049.66;5084254;28;20204;-71
2022/05/21 00:20:48;;;;;;;3.40;3.10;;;22.30;69.70;;;-142.21;100.00;112049.66;5080352;28;20296;-71
2022/05/21 00:23:21;;;;;;;3.10;2.80;;;22.30;70.00;;;-142.21;100.00;112049.66;5088723;28;20201;-71
2022/05/21 00:25:52;;;;;;;3.20;2.90;;;22.30;70.00;;;-142.21;100.00;112049.66;5075451;28;20236;-71
2022/05/21 00:28:19;;;;;;;4.20;2.97;;;22.30;70.20;;;-142.21;100.00;112049.66;5086531;28;20193;-71
2022/05/21 00:30:48;;;;;;;4.13;3.37;;;22.20;70.60;;;-142.21;100.00;112049.66;5081302;28;20300;-71
2022/05/21 00:33:15;;;;;;;2.90;2.50;;;22.10;70.90;;;-142.21;100.00;112049.66;5081439;28;20226;-71
2022/05/21 00:35:42;;;;;;;3.73;2.90;;;22.10;71.00;;;-142.21;100.00;112049.66;5081009;28;20200;-71
2022/05/21 00:38:10;;;;;;;4.20;3.07;;;22.20;70.80;;;-142.21;100.00;112049.66;5086471;28;20197;-71
2022/05/21 00:40:40;;;;;;;3.00;2.63;;;22.00;70.80;;;-142.21;100.00;112049.66;5088617;28;20196;-70
2022/05/21 00:43:08;;;;;;;3.00;2.67;;;21.90;71.70;;;-142.21;100.00;112049.66;5073635;28;20703;-71
2022/05/21 00:45:35;;;;;;;2.90;2.50;;;21.80;71.20;;;-142.21;100.00;112049.66;5074347;28;20709;-71
2022/05/21 00:48:04;;;;;;;3.03;2.70;;;21.80;70.90;;;-142.21;100.00;112049.66;5083713;28;20233;-71
2022/05/21 00:50:31;;;;;;;3.93;2.83;;;21.70;70.40;;;-142.21;100.00;112049.66;5080304;28;20219;-71
2022/05/21 00:53:00;;;;;;;2.67;2.47;;;21.60;70.30;;;-142.21;100.00;112049.66;5093916;28;20200;-71
2022/05/21 00:55:32;;;;;;;2.47;2.27;;;21.50;70.00;;;-142.21;99.17;112049.66;5091790;28;20197;-71
2022/05/21 01:00:53;;;;;;;2.43;2.20;;;21.50;69.10;;;-142.21;97.49;112049.66;5091459;28;20192;-70
2022/05/21 01:03:22;;;;;;;3.30;2.30;;;21.50;68.10;;;-142.21;96.37;112049.66;5093374;28;20613;-70
2022/05/21 01:05:50;;;;;;;3.77;2.63;;;21.40;67.00;;;-142.21;96.64;112049.66;5076900;28;20209;-70
2022/05/21 01:08:17;;;;;;;2.50;2.30;;;21.20;67.30;;;-142.21;95.88;112049.66;5074339;28;20292;-71
2022/05/21 01:10:51;;;;;;;2.30;2.10;;;21.10;67.20;;;-142.21;95.46;112049.66;5077533;28;20203;-71
2022/05/21 01:13:24;;;;;;;2.30;2.10;;;21.00;66.80;;;-142.21;95.42;112049.66;5093588;28;20225;-70
2022/05/21 01:15:54;;;;;;;3.00;2.50;;;21.00;66.60;;;-142.21;96.34;112049.66;5085984;28;20190;-70
2022/05/21 01:18:25;;;;;;;2.33;2.00;;;20.90;67.00;;;-142.21;96.23;112049.66;5078245;28;20185;-70
2022/05/21 01:20:57;;;;;;;2.53;2.17;;;20.90;67.20;;;-142.21;96.16;112049.66;5080867;28;20193;-70
2022/05/21 01:23:27;;;;;;;2.50;2.30;;;20.80;67.70;;;-142.21;96.57;112049.66;5083148;28;20193;-71
2022/05/21 01:25:57;;;;;;;4.23;2.10;;;20.70;67.40;;;-142.21;94.15;112049.66;5088416;28;20575;-71
2022/05/21 01:28:27;;;;;;;2.30;2.10;;;20.70;65.90;;;-142.21;94.13;112049.66;5073756;28;20219;-70
2022/05/21 01:30:58;;;;;;;2.23;2.03;;;20.70;65.90;;;-142.21;93.26;112049.66;5080689;28;20192;-71
2022/05/21 01:33:31;;;;;;;2.47;1.93;;;20.60;65.20;;;-142.21;93.76;112049.66;5073956;28;20268;-70
2022/05/21 01:35:59;;;;;;;2.30;2.10;;;20.50;65.70;;;-142.21;93.52;112049.66;5080297;28;20560;-70
2022/05/21 01:38:30;;;;;;;2.77;2.23;;;20.60;65.50;;;-142.21;93.23;112049.66;5073908;28;20207;-70
2022/05/21 01:40:58;;;;;;;2.20;1.70;;;20.60;65.10;;;-142.21;92.93;112049.66;5091470;28;20283;-70
2022/05/21 01:46:11;;;;;;;2.00;1.83;;;20.70;64.50;;;-142.21;92.26;112049.66;5077211;28;20629;-71
2022/05/21 01:48:38;;;;;;;2.57;1.90;;;20.60;64.30;;;-142.21;92.10;112049.66;5086983;28;20207;-70
2022/05/21 01:51:07;;;;;;;3.60;2.23;;;20.50;63.90;;;-142.21;92.44;112049.66;5084055;28;20205;-70
2022/05/21 01:53:38;;;;;;;1.90;1.80;;;20.50;64.20;;;-142.21;92.44;112049.66;5073191;28;20284;-70
2022/05/21 01:56:07;;;;;;;3.50;2.30;;;20.60;64.10;;;-142.21;93.13;112049.66;5082760;28;20437;-70
2022/05/21 01:58:35;;;;;;;3.20;2.40;;;20.60;64.10;;;-142.21;94.54;112049.66;5091545;28;20212;-70
2022/05/21 02:01:04;;;;;;;3.00;2.70;;;20.60;64.80;;;-142.21;95.96;112049.66;5073740;28;20276;-70
2022/05/21 02:03:31;;;;;;;2.90;2.43;;;20.30;65.30;;;-142.21;96.02;112049.66;5090458;28;20284;-71
2022/05/21 02:05:58;;;;;;;3.10;2.27;;;20.30;65.70;;;-142.21;95.65;112049.66;5084361;28;20213;-70
2022/05/21 02:08:25;;;;;;;2.60;2.40;;;20.20;65.50;;;-142.21;95.21;112049.66;5079834;28;20201;-70
2022/05/21 02:10:54;;;;;;;3.47;2.53;;;20.20;65.30;;;-142.21;95.02;112049.66;5078604;28;20196;-70
2022/05/21 02:13:26;;;;;;;2.93;2.63;;;20.20;65.20;;;-142.21;94.99;112049.66;5092021;28;20209;-70
2022/05/21 02:15:54;;;;;;;2.53;2.33;;;19.90;65.20;;;-142.21;94.71;112049.66;5077573;28;20547;-70
2022/05/21 02:18:21;;;;;;;2.93;2.30;;;19.90;65.60;;;-142.21;94.43;112049.66;5089203;28;20216;-70
2022/05/21 02:20:50;;;;;;;3.60;2.60;;;19.70;65.10;;;-142.21;94.66;112049.66;5077238;28;20199;-71
2022/05/21 02:23:18;;;;;;;2.20;1.97;;;19.60;65.40;;;-142.21;94.40;112049.66;5080657;28;20197;-71
2022/05/21 02:25:45;;;;;;;2.63;2.40;;;19.60;65.50;;;-142.21;94.84;112049.66;5088363;28;20565;-70
2022/05/21 02:28:15;;;;;;;2.80;2.60;;;19.50;65.60;;;-142.21;94.86;112049.66;5081046;28;20240;-70
2022/05/21 02:30:43;;;;;;;2.70;2.40;;;19.50;65.80;;;-142.21;94.92;112049.66;5085533;28;20470;-70
2022/05/21 02:33:11;;;;;;;2.47;2.23;;;19.50;65.70;;;-142.21;94.90;112049.66;5078541;28;20201;-72
2022/05/21 02:35:38;;;;;;;2.83;2.50;;;19.50;65.70;;;-142.21;93.98;112049.66;5090362;28;20188;-71
2022/05/21 02:40:50;;;;;;;2.10;1.80;;;19.50;64.80;;;-142.21;93.72;112049.66;5052088;28;20404;-71
2022/05/21 02:43:18;;;;;;;3.07;2.17;;;19.50;64.80;;;-142.21;92.58;112049.66;5086686;28;20216;-70
2022/05/21 02:45:45;;;;;;;2.83;2.10;;;19.60;64.20;;;-142.21;93.09;112049.66;5092161;28;20890;-71
2022/05/21 02:48:12;;;;;;;3.20;2.40;;;19.60;64.40;;;-142.21;91.92;112049.66;5074596;28;20201;-71
2022/05/21 02:50:41;;;;;;;1.93;1.73;;;19.50;63.50;;;-142.21;92.42;112049.66;5090905;28;20200;-71
2022/05/21 02:53:16;;;;;;;2.27;2.07;;;19.60;63.90;;;-142.21;91.70;112049.66;5075602;28;20197;-70
2022/05/21 02:55:44;;;;;;;3.10;2.90;;;19.60;63.40;;;-142.21;91.57;112049.66;5078623;28;20274;-71
2022/05/21 02:58:11;;;;;;;2.30;2.10;;;19.50;63.00;;;-142.21;91.45;112049.66;5080248;28;20447;-71
2022/05/21 03:00:40;;;;;;;2.50;2.30;;;19.50;63.00;;;-142.21;91.88;112049.66;5089650;28;20197;-71
2022/05/21 03:03:07;;;;;;;4.10;2.60;;;19.40;62.80;;;-142.21;92.26;112049.66;5088440;28;20706;-71
2022/05/21 03:05:34;;;;;;;2.33;2.20;;;19.30;63.10;;;-142.21;91.75;112049.66;5071139;28;20280;-71
2022/05/21 03:10:20;;;;;;;3.50;2.80;;;19.20;62.90;;;-142.21;92.14;112049.66;5087109;28;20671;-71
2022/05/21 03:10:51;;;;;;;3.37;2.90;;;19.10;63.20;;;-142.21;92.09;112049.66;5086114;28;20216;-71
2022/05/21 03:13:18;;;;;;;3.07;2.77;;;19.10;63.30;;;-142.21;92.30;112049.66;5074125;28;20197;-71
2022/05/21 03:15:47;;;;;;;3.43;3.10;;;19.10;63.30;;;-142.21;92.70;112049.66;5086819;28;20446;-71
2022/05/21 03:18:16;;;;;;;2.90;2.60;;;18.90;63.40;;;-142.21;92.61;112049.66;5078045;28;20560;-71
2022/05/21 03:20:44;;;;;;;3.47;3.17;;;18.90;63.80;;;-142.21;92.15;112049.66;5088895;28;20469;-71
2022/05/21 03:23:12;;;;;;;3.40;2.90;;;18.90;63.60;;;-142.21;92.48;112049.66;5075967;28;20197;-71
2022/05/21 03:25:40;;;;;;;6.07;3.30;;;18.80;63.60;;;-142.21;92.31;112049.66;5076003;28;20223;-70
2022/05/21 03:28:08;;;;;;;3.60;3.23;;;18.80;63.60;;;-142.21;92.10;112049.66;5075510;28;20661;-71
2022/05/21 03:30:35;;;;;;;3.37;3.07;;;18.80;63.50;;;-142.21;92.26;112049.66;5075810;28;20443;-71
2022/05/21 03:33:04;;;;;;;4.17;3.30;;;18.70;63.50;;;-142.21;92.04;112049.66;5075418;28;20239;-71
2022/05/21 03:35:33;;;;;;;4.10;3.50;;;18.70;63.50;;;-142.21;91.81;112049.66;5093946;28;20537;-71
2022/05/21 03:38:01;;;;;;;4.10;3.23;;;18.60;63.30;;;-142.21;92.11;112049.66;5075718;28;20947;-71
2022/05/21 03:40:32;;;;;;;3.90;3.50;;;18.60;63.40;;;-142.21;92.34;112049.66;5081681;28;20192;-71
2022/05/21 03:43:00;;;;;;;3.97;3.57;;;18.50;63.60;;;-142.21;92.46;112049.66;5076292;28;20435;-71
2022/05/21 03:45:28;;;;;;;3.50;3.20;;;18.40;63.80;;;-142.21;92.80;112049.66;5075488;28;20574;-70
2022/05/21 03:47:55;;;;;;;3.53;3.23;;;18.50;64.10;;;-142.21;92.82;112049.66;5083577;28;20454;-71
2022/05/21 03:50:31;;;;;;;6.33;3.47;;;18.50;64.00;;;-142.21;92.54;112049.66;5076590;28;20724;-71
2022/05/21 03:52:58;;;;;;;4.40;3.50;;;18.50;63.80;;;-142.21;92.73;112049.66;5093539;28;20189;-70
2022/05/21 03:55:25;;;;;;;3.60;3.30;;;18.40;63.80;;;-142.21;92.78;112049.66;5089515;28;20446;-71
2022/05/21 03:57:52;;;;;;;3.53;3.23;;;18.40;64.00;;;-142.21;92.78;112049.66;5089371;28;20474;-71
2022/05/21 04:00:21;;;;;;;3.80;3.50;;;18.40;64.10;;;-142.21;92.72;112049.66;5075207;28;20938;-71
2022/05/21 04:02:48;;;;;;;5.03;3.70;;;18.50;64.10;;;-142.21;92.99;112049.66;5076133;28;20458;-71
2022/05/21 04:05:16;;;;;;;3.60;3.30;;;18.50;64.00;;;-142.21;92.45;112049.66;5080601;28;20619;-71
2022/05/21 04:07:45;;;;;;;3.90;3.30;;;18.60;63.60;;;-142.21;92.54;112049.66;5075139;28;20519;-70
2022/05/21 04:10:17;;;;;;;3.40;3.10;;;18.70;63.80;;;-142.21;92.97;112049.66;5084616;28;20446;-71
2022/05/21 04:12:44;;;;;;;3.87;3.30;;;18.70;63.50;;;-142.21;93.47;112049.66;5082768;28;20638;-71
2022/05/21 04:15:12;;;;;;;3.90;3.60;;;18.70;63.80;;;-142.21;93.96;112049.66;5080925;28;20525;-70
2022/05/21 04:17:39;;;;;;;5.00;3.60;;;18.60;64.10;;;-142.21;94.95;112049.66;5091453;28;20529;-71
2022/05/21 04:20:12;;;;;;;4.00;3.40;;;18.60;64.60;;;-142.21;95.31;112049.66;5092114;28;20445;-71
2022/05/21 04:22:40;;;;;;;3.50;3.20;;;18.50;65.00;;;-142.21;96.01;112049.66;5084440;28;20450;-71
2022/05/21 04:25:10;;;;;;;3.60;3.30;;;18.50;66.10;;;-142.21;96.07;112049.66;5076862;28;20534;-71
2022/05/21 04:27:40;;;;;;;3.60;2.80;;;18.50;65.70;;;-142.21;96.08;112049.66;5085326;28;20457;-70
2022/05/21 04:30:12;;;;;;;3.93;3.43;;;18.50;65.80;;;-142.21;96.47;112049.66;5077803;28;20467;-71
2022/05/21 04:32:39;;;;;;;3.93;3.63;;;18.50;66.00;;;-142.21;96.44;112049.66;5092068;28;20430;-71
2022/05/21 04:35:08;;;;;;;4.23;3.30;;;18.40;65.80;;;-142.21;96.34;112049.66;5076629;28;20451;-71
2022/05/21 04:37:37;;;;;;;4.30;3.63;;;18.50;66.00;;;-142.21;96.08;112049.66;5075127;28;20447;-71
2022/05/21 04:40:09;;;;;;;5.67;3.50;;;18.50;65.90;;;-142.21;96.70;112049.66;5076681;28;20308;-71
2022/05/21 04:42:36;;;;;;;3.90;3.60;;;18.50;66.10;;;-142.21;96.45;112049.66;5073396;28;20446;-71
2022/05/21 04:45:05;;;;;;;5.20;4.00;;;18.50;65.90;;;-142.21;96.39;112049.66;5078462;28;20446;-71
2022/05/21 04:47:33;;;;;;;3.90;3.50;;;18.50;65.90;;;-142.21;96.47;112049.66;5093521;28;20525;-71
2022/05/21 04:50:00;;;;;;;4.57;4.17;;;18.60;66.00;;;-142.21;96.50;112049.66;5086226;28;20442;-71
2022/05/21 04:52:27;;;;;;;4.37;3.97;;;18.50;66.10;;;-142.21;96.69;112049.66;5093774;28;20223;-71
2022/05/21 04:54:55;;;;;;;4.57;3.93;;;18.50;66.30;;;-142.21;96.20;112049.66;5091695;28;20193;-71
2022/05/21 04:57:23;;;;;;;5.13;3.53;;;18.40;66.60;;;-142.21;96.58;112049.66;5083431;28;20450;-71
2022/05/21 04:59:51;;;;;;;4.07;3.60;;;18.50;66.40;;;-142.21;95.69;112049.66;5079379;28;20466;-71
2022/05/21 05:02:21;;;;;;;6.23;3.67;;;18.50;65.90;;;-142.21;95.83;112049.66;5074633;28;20450;-71
2022/05/21 05:04:48;;;;;;;3.97;3.53;;;18.40;65.90;;;-142.21;95.93;112049.66;5086920;28;20474;-71
2022/05/21 05:07:17;;;;;;;4.53;3.60;;;18.40;66.10;;;-142.21;95.91;112049.66;5090051;28;20482;-70
2022/05/21 05:09:47;;;;;;;3.83;3.43;;;18.40;66.30;;;-142.21;95.43;112049.66;5081480;28;20520;-71
2022/05/21 05:12:16;;;;;;;3.40;2.93;;;18.40;66.10;;;-142.21;95.23;112049.66;5081341;28;20486;-71
2022/05/21 05:14:44;;;;;;;3.57;2.90;;;18.50;66.00;;;-142.21;94.35;112049.66;5081180;28;20515;-71
2022/05/21 05:17:14;;;;;;;3.70;2.93;;;18.60;65.40;;;-142.21;93.72;112049.66;5074604;28;20526;-71
2022/05/21 05:19:42;;;;;;;3.50;3.10;;;18.80;65.10;;;-142.21;92.25;112049.66;5084102;28;20526;-71
2022/05/21 05:22:10;;;;;;;4.87;3.00;;;18.90;64.00;;;-142.21;92.49;112049.66;5091645;28;20443;-70
2022/05/21 05:24:37;;;;;;;3.13;2.83;;;18.90;64.10;;;-142.21;92.58;112049.66;5091811;28;20447;-70
2022/05/21 05:27:06;;;;;;;3.30;3.00;;;18.90;64.00;;;-142.21;91.88;112049.66;5083528;28;20482;-70
2022/05/21 05:29:33;;;;;;;3.00;2.43;;;18.90;63.60;;;-142.21;91.55;112049.66;5087034;28;20484;-71
2022/05/21 05:32:01;;;;;;;4.33;2.57;;;18.80;63.50;;;-142.21;91.23;112049.66;5075796;28;20834;-71
2022/05/21 05:34:28;;;;;;;2.60;2.40;;;18.90;63.60;;;-142.21;90.92;112049.66;5074187;28;20455;-71
2022/05/21 05:36:55;;;;;;;3.23;2.50;;;19.10;63.30;;;-142.21;90.03;112049.66;5089747;28;20466;-71
2022/05/21 05:39:23;;;;;;;4.40;2.30;;;19.30;62.70;;;-142.21;88.15;112049.66;5084889;28;20201;-71
2022/05/21 05:41:50;;;;;;;2.80;2.60;;;19.30;61.40;;;-142.21;88.12;112049.66;5073851;28;20296;-71
2022/05/21 05:44:17;;;;;;;3.23;2.50;;;19.30;61.30;;;-142.21;88.75;112049.66;5074266;28;20962;-69
2022/05/21 05:46:44;;;;;;;3.10;2.27;;;19.10;61.50;;;-142.21;88.10;112049.66;5078126;28;20304;-71
2022/05/21 05:49:12;;;;;;;3.10;2.03;;;19.20;61.30;;;-142.21;87.17;112049.66;5093342;28;21040;-71
2022/05/21 05:51:39;;;;;;;3.10;2.00;;;19.20;61.30;;;-142.21;86.57;112049.66;5090963;28;20269;-71
2022/05/21 05:54:07;;;;;;;2.10;1.90;;;19.30;61.00;;;-142.21;86.73;112049.66;5090824;28;20205;-71
2022/05/21 05:56:34;;;;;;;3.63;1.90;;;19.40;60.80;;;-142.21;84.85;112049.66;5086420;28;20821;-71
2022/05/21 06:01:46;;;;;;;3.07;2.00;;;19.50;59.30;;;-142.21;83.23;112049.66;5085691;28;20436;-70
2022/05/21 06:04:14;;;;;;;2.60;2.23;;;19.50;59.20;;;-142.21;82.39;112049.66;5082783;28;20236;-71
2022/05/21 06:06:41;;;;;;;2.43;2.00;;;19.40;58.70;;;-142.21;82.94;112049.66;5080925;28;20217;-71
2022/05/21 06:09:08;;;;;;;3.10;2.40;;;19.30;59.00;;;-142.21;81.89;112049.66;5090958;28;20200;-71
2022/05/21 06:11:38;;;;;;;2.70;2.37;;;19.40;59.40;;;-142.21;80.42;112049.66;5090803;28;20603;-70
2022/05/21 06:14:05;;;;;;;2.80;2.30;;;19.30;58.00;;;-142.21;81.56;112049.66;5083779;28;20549;-70
2022/05/21 06:16:33;;;;;;;2.27;2.07;;;19.30;58.70;;;-142.21;82.29;112049.66;5088051;28;20200;-70
2022/05/21 06:19:00;;;;;;;5.10;2.13;;;19.40;59.10;;;-142.21;81.31;112049.66;5090663;28;20200;-70
2022/05/21 06:21:29;;;;;;;2.97;2.50;;;19.50;58.70;;;-142.21;80.17;112049.66;5073236;28;20526;-71
2022/05/21 06:23:56;;;;;;;2.37;2.17;;;19.50;58.10;;;-142.21;80.04;112049.66;5087636;28;20240;-71
2022/05/21 06:26:23;;;;;;;2.10;1.90;;;19.60;58.40;;;-142.21;79.38;112049.66;5072952;28;20223;-71
2022/05/21 06:28:51;;;;;;;4.07;1.90;;;19.70;58.10;;;-142.21;78.30;112049.66;5091462;28;20220;-71
2022/05/21 06:31:18;;;;;;;2.67;1.60;;;19.80;57.70;;;-142.21;75.33;112049.66;5079376;28;20205;-70
2022/05/21 06:33:45;;;;;;;2.47;1.73;;;19.90;56.80;;;-142.21;73.19;112049.66;5086581;28;20196;-70
2022/05/21 06:36:16;;;;;;;1.67;1.57;;;19.90;56.30;;;-142.21;68.57;112049.66;5075113;28;20261;-71
2022/05/21 06:38:46;;;;;;;1.70;1.60;;;19.90;54.30;;;-142.21;69.42;112049.66;5071844;28;20201;-71
2022/05/21 06:41:13;;;;;;;2.83;1.97;;;19.70;54.90;;;-142.21;65.72;112049.66;5091944;28;20201;-71
2022/05/21 06:43:41;;;;;;;5.03;1.50;;;19.70;53.70;;;-142.21;67.21;112049.66;5080688;28;20200;-71
2022/05/21 06:46:08;;;;;;;1.67;1.30;;;19.60;54.20;;;-142.21;66.46;112049.66;5078709;28;20229;-71
2022/05/21 06:48:35;;;;;;;3.10;1.67;;;19.70;54.30;;;-142.21;67.04;112049.66;5071712;28;20209;-71
2022/05/21 06:51:05;;;;;;;2.13;1.63;;;19.70;54.30;;;-142.21;68.43;112049.66;5082848;28;20207;-71
2022/05/21 06:53:33;;;;;;;2.00;1.50;;;19.80;54.70;;;-142.21;68.57;112049.66;5060189;28;20218;-71
2022/05/21 06:56:06;;;;;;;2.17;1.30;;;20.00;55.00;;;-142.21;60.85;112049.66;5075286;28;20257;-71
2022/05/21 06:58:34;;;;;;;2.53;1.57;;;20.10;52.10;;;-142.21;60.48;112049.66;5085380;28;20193;-70
2022/05/21 07:01:01;;;;;;;3.87;1.57;;;19.90;51.90;;;-142.21;62.58;112049.66;5091378;28;20627;-70
2022/05/21 07:03:28;;;;;;;2.50;1.77;;;19.90;52.90;;;-142.21;64.38;112049.66;5082955;28;20193;-72
2022/05/21 07:08:39;;;;;;;1.57;1.37;;;20.10;53.60;;;-142.21;63.93;112049.66;5089490;28;20281;-71
2022/05/21 07:11:09;;;;;;;2.27;1.40;;;20.30;53.60;;;-142.21;59.71;112049.66;5080017;28;20201;-71
2022/05/21 07:13:36;;;;;;;1.73;1.10;;;20.50;51.90;;;-142.21;59.29;112049.66;5088281;28;20227;-71
2022/05/21 07:16:04;;;;;;;1.97;1.30;;;20.50;51.70;;;-142.21;60.52;112049.66;5059159;28;20205;-71
2022/05/21 07:18:31;;;;;;;2.23;1.40;;;20.60;52.30;;;-142.21;62.76;112049.66;5091270;28;20769;-71
2022/05/21 07:20:59;;;;;;;1.40;1.10;;;20.80;52.90;;;-142.21;60.71;112049.66;5090498;28;20243;-71
2022/05/21 07:23:28;;;;;;;4.00;1.53;;;20.90;52.00;;;-142.21;59.31;112049.66;5082534;28;20237;-71
2022/05/21 07:25:56;;;;;;;3.07;1.27;;;20.90;51.70;;;-142.21;58.30;112049.66;5052892;28;20250;-71
2022/05/21 07:28:26;;;;;;;1.40;1.30;;;21.00;51.40;;;-142.21;61.34;112049.66;5077150;28;20228;-71
2022/05/21 07:30:53;;;;;;;1.57;1.30;;;21.20;52.20;;;-142.21;60.97;112049.66;5081826;28;20204;-70
2022/05/21 07:33:22;;;;;;;1.87;1.27;;;21.40;52.00;;;-142.21;60.59;112049.66;5074484;28;20256;-71
2022/05/21 07:35:49;;;;;;;5.37;1.50;;;21.40;51.40;;;-142.21;61.74;112049.66;5090273;28;20250;-71
2022/05/21 07:38:17;;;;;;;3.47;1.60;;;21.20;51.60;;;-142.21;60.78;112049.66;5090558;28;20207;-71
2022/05/21 07:40:46;;;;;;;3.13;1.40;;;21.10;51.40;;;-142.21;61.62;112049.66;5076021;28;20201;-71
2022/05/21 07:43:19;;;;;;;2.87;1.93;;;21.00;52.00;;;-142.21;63.12;112049.66;5081209;28;20190;-78
2022/05/21 07:45:49;;;;;;;2.37;2.10;;;21.00;52.20;;;-142.21;63.98;112049.66;5074493;28;20190;-73
2022/05/21 07:48:19;;;;;;;3.13;1.63;;;21.30;53.10;;;-142.21;62.41;112049.66;5091630;28;20212;-75
2022/05/21 07:50:50;;;;;;;3.13;1.63;;;21.60;52.90;;;-142.21;68.41;112049.66;5080826;28;20197;-74
2022/05/21 07:53:21;;;;;;;2.13;1.90;;;21.60;53.30;;;-142.21;63.76;112049.66;5089910;28;20189;-74
2022/05/21 07:55:52;;;;;;;1.70;1.60;;;21.50;52.50;;;-142.21;64.16;112049.66;5073803;28;20714;-75
2022/05/21 07:58:20;;;;;;;2.87;1.70;;;21.70;52.70;;;-142.21;63.92;112049.66;5083460;28;20193;-74
2022/05/21 08:00:49;;;;;;;2.00;1.37;;;21.70;52.60;;;-142.21;63.95;112049.66;5063097;28;20740;-74
2022/05/21 08:03:17;;;;;;;2.40;2.07;;;21.60;52.20;;;-142.21;65.55;112049.66;5088232;28;20287;-74
2022/05/21 08:05:46;;;;;;;1.90;1.63;;;21.60;53.80;;;-142.21;64.85;112049.66;5074623;28;20232;-74
2022/05/21 08:08:14;;;;;;;4.00;1.53;;;21.70;52.80;;;-142.21;64.39;112049.66;5090659;28;20255;-74
2022/05/21 08:10:46;;;;;;;2.13;1.70;;;21.70;52.60;;;-142.21;65.32;112049.66;5093118;28;20197;-74
2022/05/21 08:13:15;;;;;;;1.60;1.40;;;21.60;52.70;;;-142.21;65.13;112049.66;5082166;28;20292;-73
2022/05/21 08:15:43;;;;;;;5.40;2.00;;;21.50;53.10;;;-142.21;63.83;112049.66;5082098;28;20196;-75
2022/05/21 08:18:12;;;;;;;2.00;1.47;;;21.60;52.70;;;-142.21;63.60;112049.66;5087203;28;20625;-76
2022/05/21 08:20:41;;;;;;;1.67;1.37;;;21.80;52.50;;;-142.21;63.34;112049.66;5089808;28;20196;-75
2022/05/21 08:28:45;;;;;;;1.87;1.50;;;22.00;51.30;;;-142.21;60.98;112049.66;5094366;28;20265;-75
2022/05/21 08:31:12;;;;;;;3.77;1.50;;;21.80;51.60;;;-142.21;59.89;112049.66;5084461;28;20215;-75
2022/05/21 08:33:41;;;;;;;3.27;1.87;;;21.80;51.40;;;-142.21;60.67;112049.66;5073826;28;20209;-72
2022/05/21 08:36:08;;;;;;;2.97;1.67;;;21.90;51.80;;;-142.21;59.45;112049.66;5084370;28;20243;-71
2022/05/21 08:38:35;;;;;;;2.67;1.37;;;21.90;51.30;;;-142.21;59.25;112049.66;5093987;28;20236;-72
2022/05/21 08:41:10;;;;;;;2.23;1.70;;;21.90;51.60;;;-142.21;58.61;112049.66;5093276;28;20196;-72
2022/05/21 08:43:53;;;;;;;2.57;1.20;;;22.00;51.20;;;-142.21;59.11;112049.66;5093908;28;20192;-71
2022/05/21 08:46:42;;;;;;;4.10;1.33;;;22.20;51.50;;;-142.21;56.16;112049.66;5090470;28;20192;-71
2022/05/21 08:49:25;;;;;;;3.63;1.57;;;22.40;50.50;;;-142.21;58.71;112049.66;5092394;28;20204;-72
2022/05/21 08:51:59;;;;;;;1.97;1.30;;;22.40;51.30;;;-142.21;56.87;112049.66;5093412;28;20279;-72
2022/05/21 08:54:34;;;;;;;4.00;1.70;;;22.60;51.00;;;-142.21;55.34;112049.66;5074064;28;20280;-72
2022/05/21 08:57:05;;;;;;;3.43;1.33;;;22.60;50.40;;;-142.21;56.04;112049.66;5093274;28;20184;-72
2022/05/21 08:59:46;;;;;;;1.90;1.30;;;22.50;50.20;;;-142.21;56.57;112049.66;5053529;28;20281;-72
2022/05/21 09:02:18;;;;;;;4.93;1.43;;;22.50;50.10;;;-142.21;55.29;112049.66;5073626;28;20275;-72
2022/05/21 09:04:46;;;;;;;2.10;1.30;;;22.50;50.10;;;-142.21;56.17;112049.66;5080594;28;20275;-72
2022/05/21 09:07:20;;;;;;;1.73;1.33;;;22.50;50.30;;;-142.21;57.83;112049.66;5095430;28;20291;-72
2022/05/21 09:10:07;;;;;;;2.80;1.13;;;22.80;51.10;;;-142.21;57.80;112049.66;5093778;28;20203;-72
2022/05/21 09:12:46;;;;;;;1.37;1.10;;;23.10;51.20;;;-142.21;54.92;112049.66;5087842;28;20277;-73
2022/05/21 09:18:05;;;;;;;2.00;1.20;;;23.50;49.40;;;-142.21;51.46;112049.66;5074377;28;20263;-72
2022/05/21 09:20:46;;;;;;;1.43;1.10;;;23.50;48.50;;;-142.21;50.92;112049.66;5092203;28;20275;-71
2022/05/21 09:23:13;;;;;;;2.77;1.00;;;23.30;48.40;;;-142.21;52.68;112049.66;5081944;28;20219;-73
2022/05/21 09:25:40;;;;;;;2.70;1.53;;;23.40;49.30;;;-142.21;52.33;112049.66;5093901;28;20554;-72
2022/05/21 09:28:11;;;;;;;2.00;1.37;;;23.50;48.90;;;-142.21;50.37;112049.66;5076796;28;20228;-71
2022/05/21 09:30:41;;;;;;;1.80;1.00;;;23.40;47.60;;;-142.21;50.57;112049.66;5079471;28;20196;-71
2022/05/21 09:33:28;;;;;;;1.00;0.83;;;23.50;48.30;;;-142.21;51.43;112049.66;5103704;28;20652;-70
2022/05/21 09:35:59;;;;;;;2.73;1.30;;;23.80;48.50;;;-142.21;49.96;112049.66;5094191;28;20191;-72
2022/05/21 09:38:30;;;;;;;1.90;1.00;;;24.00;48.30;;;-142.21;48.17;112049.66;5073425;28;20190;-72
2022/05/21 09:41:14;;;;;;;1.77;1.10;;;23.90;46.80;;;-142.21;50.16;112049.66;5073121;28;20190;-73
2022/05/21 09:46:37;;;;;;;3.53;1.40;;;23.70;46.10;;;-142.21;48.79;112049.66;5087750;28;20199;-71
2022/05/21 09:49:24;;;;;;;3.43;1.50;;;23.80;47.50;;;-142.21;48.57;112049.66;5091055;28;20298;-71
2022/05/21 09:52:00;;;;;;;2.27;1.50;;;23.70;46.80;;;-142.21;49.56;112049.66;5079680;28;20184;-71
2022/05/21 09:54:33;;;;;;;3.47;1.10;;;23.70;47.40;;;-142.21;52.95;112049.66;5090305;28;20219;-73
2022/05/21 09:57:01;;;;;;;1.77;1.00;;;23.90;48.70;;;-142.21;51.59;112049.66;5093118;28;20232;-73
2022/05/21 09:59:32;;;;;;;1.50;1.10;;;24.20;48.20;;;-142.21;49.54;112049.66;5088930;28;20205;-73
2022/05/21 10:02:03;;;;;;;2.17;1.17;;;24.50;47.90;;;-142.21;49.88;112049.66;5072198;28;20200;-72
2022/05/21 10:04:44;;;;;;;9.20;1.73;;;24.50;47.50;;;-142.21;51.66;112049.66;5075643;28;20318;-72
2022/05/21 10:13:07;;;;;;;7.67;3.67;;;25.10;46.30;;;-142.21;45.01;112049.66;5072161;28;20608;-80
2022/05/21 10:15:42;;;;;;;1.30;1.20;;;25.20;45.00;;;-142.21;45.25;112049.66;5071599;28;20234;-76
2022/05/21 10:18:25;;;;;;;1.40;1.03;;;24.90;45.20;;;-142.21;45.10;112049.66;5073562;28;20279;-75
2022/05/21 10:21:00;;;;;;;2.10;1.20;;;24.90;45.10;;;-142.21;45.26;112049.66;5052135;28;20193;-71
2022/05/21 10:23:40;;;;;;;1.20;1.10;;;24.60;45.20;;;-142.21;44.46;112049.66;5020163;28;20236;-72
2022/05/21 10:26:36;;;;;;;3.53;1.40;;;24.60;45.10;;;-142.21;45.08;112049.66;5071535;28;20227;-72
2022/05/21 10:29:40;;;;;;;0.97;0.90;;;24.50;45.20;;;-142.21;46.37;112049.66;5078032;28;20654;-74
2022/05/21 10:32:31;;;;;;;2.00;0.93;;;24.60;46.10;;;-142.21;44.04;112049.66;5092247;28;20193;-73
2022/05/21 10:35:25;;;;;;;1.20;1.07;;;24.80;44.70;;;-142.21;43.54;112049.66;5086014;28;20207;-74
2022/05/21 10:38:06;;;;;;;2.23;1.27;;;24.80;44.80;;;-142.21;44.23;112049.66;5072127;28;20203;-74
2022/05/21 10:40:46;;;;;;;2.73;1.40;;;24.70;44.40;;;-142.21;44.53;112049.66;5072994;28;20200;-72
2022/05/21 10:43:36;;;;;;;1.20;0.90;;;24.70;45.10;;;-142.21;43.71;112049.66;5089857;28;20220;-67